Time;durP1;ratioP1;P1;durP2;ratioP2;P2;SDS_P1;SDS_P2;PMS_P1;PMS_P2;Temp;Humidity;BMP_temperature;BMP_pressure;BME280_temperature;BME280_humidity;BME280_pressure;Samples;Min_cycle;Max_cycle;Signal;HPM_P1;HPM_P2
2023/12/14 00:00:26;;;;;;;15.37;9.23;;;;;;;6.46;100.00;63609.59;5051457;28;20192;-56
2023/12/14 00:02:52;;;;;;;21.43;10.87;;;;;;;6.61;100.00;63625.94;5051152;28;20209;-56
2023/12/14 00:05:18;;;;;;;17.57;10.07;;;;;;;6.35;100.00;63594.53;5049924;28;20223;-56
2023/12/14 00:07:43;;;;;;;18.43;9.97;;;;;;;6.54;100.00;63615.81;5051517;28;20222;-56
2023/12/14 00:10:09;;;;;;;16.27;10.40;;;;;;;6.02;100.00;63561.63;5051023;28;20229;-56
2023/12/14 00:12:35;;;;;;;17.17;9.40;;;;;;;6.30;100.00;63591.59;5051410;28;20288;-55
2023/12/14 00:15:07;;;;;;;19.73;10.27;;;;;;;6.48;100.00;63608.72;5051177;28;20700;-55
2023/12/14 00:17:33;;;;;;;18.33;10.57;;;;;;;6.48;100.00;63611.78;5051212;28;20275;-55
2023/12/14 00:19:59;;;;;;;13.90;9.40;;;;;;;6.64;100.00;63628.66;5050647;28;20193;-54
2023/12/14 00:22:24;;;;;;;14.63;9.83;;;;;;;6.33;100.00;63590.41;5051063;28;20599;-55
2023/12/14 00:24:51;;;;;;;18.57;10.07;;;;;;;6.01;100.00;63558.03;5051073;28;20185;-55
2023/12/14 00:27:16;;;;;;;15.47;10.13;;;;;;;6.17;100.00;63577.97;5051142;28;20217;-56
2023/12/14 00:29:42;;;;;;;16.60;10.67;;;;;;;6.37;100.00;63599.78;5049729;28;20188;-55
2023/12/14 00:32:07;;;;;;;16.13;9.47;;;;;;;6.24;100.00;63585.59;5051065;28;20223;-55
2023/12/14 00:34:33;;;;;;;20.77;10.83;;;;;;;6.40;100.00;63597.50;5050776;28;20192;-55
2023/12/14 00:36:58;;;;;;;17.30;10.70;;;;;;;6.55;100.00;63618.84;5051056;28;20225;-54
2023/12/14 00:39:24;;;;;;;18.27;9.37;;;;;;;6.46;100.00;63609.59;5050698;28;20202;-58
2023/12/14 00:41:50;;;;;;;16.67;9.70;;;;;;;6.41;100.00;63601.63;5050719;28;20212;-56
2023/12/14 00:44:15;;;;;;;17.47;10.73;;;;;;;6.15;100.00;63575.25;5032720;28;20194;-54
2023/12/14 00:46:41;;;;;;;17.47;9.80;;;;;;;6.16;100.00;63576.88;5050519;28;20711;-55
2023/12/14 00:49:07;;;;;;;15.67;10.17;;;;;;;6.39;100.00;63601.94;5050574;28;20189;-55
2023/12/14 00:51:33;;;;;;;16.40;10.00;;;;;;;6.02;100.00;63561.09;5050714;28;20302;-65
2023/12/14 00:53:58;;;;;;;16.10;10.50;;;;;;;6.22;100.00;63582.88;5050555;28;20186;-53
2023/12/14 00:56:24;;;;;;;18.67;9.63;;;;;;;6.26;100.00;63585.28;5032596;28;20683;-54
2023/12/14 00:58:49;;;;;;;14.70;9.60;;;;;;;6.05;100.00;63564.91;5050675;28;20189;-54
2023/12/14 01:01:15;;;;;;;19.77;10.33;;;;;;;6.35;100.00;63594.53;5050748;28;20556;-54
2023/12/14 01:03:40;;;;;;;19.03;10.27;;;;;;;6.03;100.00;63559.69;5032487;28;20691;-54
2023/12/14 01:06:07;;;;;;;15.57;9.10;;;;;;;6.05;100.00;63561.84;5050503;28;20267;-53
2023/12/14 01:08:32;;;;;;;14.40;8.63;;;;;;;6.23;100.00;63587.00;5050648;28;20240;-53
2023/12/14 01:10:58;;;;;;;15.67;9.90;;;;;;;5.86;100.00;63541.69;5050535;28;22155;-54
2023/12/14 01:13:23;;;;;;;18.30;9.13;;;;;;;6.22;100.00;63582.88;5049075;28;20202;-53
2023/12/14 01:15:49;;;;;;;15.80;9.07;;;;;;;6.12;100.00;63567.53;5050309;28;20182;-53
2023/12/14 01:18:14;;;;;;;15.23;9.50;;;;;;;5.86;100.00;63544.75;5050279;28;20220;-54
2023/12/14 01:20:41;;;;;;;14.90;8.90;;;;;;;6.16;100.00;63576.88;5050262;28;20185;-54
2023/12/14 01:23:09;;;;;;;15.03;8.93;;;;;;;5.86;100.00;63542.25;5050059;28;20241;-56
2023/12/14 01:25:35;;;;;;;15.67;8.77;;;;;;;6.00;100.00;63554.44;5050183;28;20265;-53
2023/12/14 01:28:01;;;;;;;16.87;9.20;;;;;;;5.74;100.00;63529.16;5050202;28;20237;-55
2023/12/14 01:30:27;;;;;;;16.20;9.90;;;;;;;6.14;100.00;63572.19;5049959;28;20209;-54
2023/12/14 01:32:53;;;;;;;14.70;8.63;;;;;;;6.08;100.00;63567.63;5051788;28;20217;-55
2023/12/14 01:35:19;;;;;;;13.13;7.70;;;;;;;6.20;100.00;63578.22;5053444;28;20200;-53
2023/12/14 01:37:44;;;;;;;15.10;8.77;;;;;;;6.21;100.00;63579.28;5053777;28;20217;-55
2023/12/14 01:40:10;;;;;;;12.67;7.90;;;;;;;6.05;100.00;63564.34;5053437;28;20221;-54
2023/12/14 01:42:36;;;;;;;12.77;8.07;;;;;;;6.19;100.00;63580.16;5053364;28;20292;-55
2023/12/14 01:45:01;;;;;;;14.43;8.07;;;;;;;5.99;100.00;63557.81;5053457;28;20185;-58
2023/12/14 01:47:27;;;;;;;12.97;8.83;;;;;;;5.74;100.00;63528.59;5035482;28;20336;-56
2023/12/14 01:49:52;;;;;;;14.63;8.00;;;;;;;6.04;100.00;63560.78;5053510;28;20188;-55
2023/12/14 01:52:18;;;;;;;15.63;8.80;;;;;;;5.76;100.00;63531.34;5035286;28;20696;-54
2023/12/14 01:54:43;;;;;;;13.23;8.40;;;;;;;5.97;100.00;63556.19;5035333;28;20192;-55
2023/12/14 01:57:09;;;;;;;16.83;9.07;;;;;;;6.13;100.00;63573.06;5053343;28;20275;-55
2023/12/14 01:59:35;;;;;;;13.33;7.47;;;;;;;5.94;100.00;63553.47;5052953;28;20177;-54
2023/12/14 02:02:02;;;;;;;13.43;7.97;;;;;;;6.02;100.00;63564.13;5053412;28;20245;-54
2023/12/14 02:04:28;;;;;;;16.27;8.23;;;;;;;6.03;100.00;63559.69;5035137;28;20197;-56
2023/12/14 02:06:54;;;;;;;17.40;8.77;;;;;;;5.86;100.00;63544.19;5035285;28;20278;-55
2023/12/14 02:09:19;;;;;;;15.17;8.33;;;;;;;6.08;100.00;63565.13;5052978;28;20196;-53
2023/12/14 02:11:45;;;;;;;17.97;8.70;;;;;;;5.84;100.00;63539.53;5053125;28;20595;-53
2023/12/14 02:14:10;;;;;;;14.53;8.43;;;;;;;5.91;100.00;63547.16;5052981;28;20717;-54
2023/12/14 02:16:38;;;;;;;14.70;7.43;;;;;;;6.14;100.00;63574.69;5053130;28;20206;-53
2023/12/14 02:19:04;;;;;;;14.77;8.40;;;;;;;6.21;100.00;63579.84;5052802;28;20189;-54
2023/12/14 02:21:30;;;;;;;10.73;7.07;;;;;;;5.92;100.00;63548.78;5035003;28;20213;-54
2023/12/14 02:23:56;;;;;;;13.97;7.93;;;;;;;6.00;100.00;63559.44;5052948;28;20265;-63
2023/12/14 02:26:22;;;;;;;16.23;9.33;;;;;;;5.89;100.00;63548.03;5052950;28;20636;-54
2023/12/14 02:28:47;;;;;;;13.13;7.47;;;;;;;5.96;100.00;63555.09;5052692;28;20268;-55
2023/12/14 02:31:13;;;;;;;12.57;8.57;;;;;;;6.09;100.00;63566.22;5034806;28;20223;-54
2023/12/14 02:33:38;;;;;;;13.43;7.77;;;;;;;5.92;100.00;63548.78;5052761;28;20215;-54
2023/12/14 02:36:05;;;;;;;10.47;7.13;;;;;;;6.23;100.00;63584.50;5052714;28;20197;-56
2023/12/14 02:38:30;;;;;;;13.00;7.63;;;;;;;6.18;100.00;63574.06;5052347;28;20212;-55
2023/12/14 02:40:55;;;;;;;13.57;7.03;;;;;;;6.08;100.00;63565.13;5052445;28;20651;-60
2023/12/14 02:43:23;;;;;;;14.40;8.40;;;;;;;6.34;100.00;63594.00;5034229;28;20686;-55
2023/12/14 02:45:49;;;;;;;13.23;7.77;;;;;;;6.11;100.00;63571.44;5052478;28;20209;-53
2023/12/14 02:48:14;;;;;;;10.07;7.20;;;;;;;6.37;100.00;63596.72;5018165;28;20205;-54
2023/12/14 02:50:40;;;;;;;12.03;7.20;;;;;;;6.21;100.00;63582.34;5034392;28;20217;-56
2023/12/14 02:53:05;;;;;;;12.67;7.90;;;;;;;6.34;100.00;63594.00;5052349;28;20263;-55
2023/12/14 02:55:31;;;;;;;13.00;7.63;;;;;;;6.34;100.00;63596.50;5034764;28;20216;-56
2023/12/14 02:58:03;;;;;;;14.07;7.80;;;;;;;6.10;100.00;63567.84;5052377;28;20722;-55
2023/12/14 03:00:28;;;;;;;13.00;7.70;;;;;;;6.38;100.00;63600.84;5052351;28;20258;-57
2023/12/14 03:02:54;;;;;;;11.07;7.13;;;;;;;6.55;100.00;63621.91;5052044;28;20214;-55
2023/12/14 03:05:19;;;;;;;13.17;7.40;;;;;;;6.67;100.00;63629.97;5052175;28;20182;-54
2023/12/14 03:07:45;;;;;;;13.60;8.17;;;;;;;6.56;100.00;63619.94;5051922;28;20209;-53
2023/12/14 03:10:11;;;;;;;26.13;14.93;;;;;;;6.42;100.00;63604.69;5051870;28;20292;-53
2023/12/14 03:12:36;;;;;;;10.90;7.47;;;;;;;6.40;100.00;63603.03;5052218;28;20213;-52
2023/12/14 03:15:02;;;;;;;13.27;7.73;;;;;;;6.26;100.00;63587.78;5052184;28;20239;-55
2023/12/14 03:17:28;;;;;;;15.33;7.37;;;;;;;6.52;100.00;63613.63;5052145;28;20714;-54
2023/12/14 03:19:53;;;;;;;11.97;7.17;;;;;;;6.29;100.00;63591.06;5051734;28;20181;-54
2023/12/14 03:22:19;;;;;;;10.97;6.77;;;;;;;6.33;100.00;63592.34;5052025;28;20326;-54
2023/12/14 03:24:44;;;;;;;12.87;7.50;;;;;;;6.32;100.00;63591.28;5051756;28;20188;-55
2023/12/14 03:27:10;;;;;;;12.07;6.83;;;;;;;6.44;100.00;63606.88;5052295;28;20205;-53
2023/12/14 03:29:35;;;;;;;9.27;6.10;;;;;;;6.57;100.00;63619.06;5051651;28;20188;-54
2023/12/14 03:32:01;;;;;;;11.90;6.97;;;;;;;6.41;100.00;63604.13;5052013;28;20228;-54
2023/12/14 03:34:26;;;;;;;10.60;6.27;;;;;;;6.69;100.00;63634.66;5033731;28;20177;-58
2023/12/14 03:36:52;;;;;;;8.93;5.90;;;;;;;6.91;100.00;63657.56;5051853;28;20213;-55
2023/12/14 03:39:18;;;;;;;7.27;5.53;;;;;;;6.90;100.00;63656.47;5051602;28;20569;-64
2023/12/14 03:41:44;;;;;;;11.50;6.63;;;;;;;6.68;100.00;63633.03;5051637;28;20224;-55
2023/12/14 03:44:09;;;;;;;9.20;5.23;;;;;;;6.68;100.00;63633.03;5051567;28;20193;-57
2023/12/14 03:46:35;;;;;;;7.17;4.93;;;;;;;6.63;100.00;63625.06;5051369;28;20193;-55
2023/12/14 03:49:01;;;;;;;8.93;5.47;;;;;;;6.55;100.00;63618.84;5051424;28;20269;-55
2023/12/14 03:51:27;;;;;;;8.40;5.37;;;;;;;6.87;100.00;63653.19;5051048;28;20724;-56
2023/12/14 03:53:52;;;;;;;9.13;5.10;;;;;;;6.90;100.00;63654.50;5051564;28;20239;-56
2023/12/14 03:56:18;;;;;;;8.80;5.87;;;;;;;6.70;100.00;63638.25;5032730;28;20311;-55
2023/12/14 03:58:43;;;;;;;6.97;5.03;;;;;;;6.85;100.00;63651.00;5051347;28;20185;-56
2023/12/14 04:01:19;;;;;;;10.93;5.63;;;;;;;6.86;100.00;63652.09;5051411;28;20228;-56
2023/12/14 04:03:45;;;;;;;10.93;5.10;;;;;;;6.61;100.00;63625.38;5033265;28;20189;-57
2023/12/14 04:06:14;;;;;;;10.23;5.77;;;;;;;6.73;100.00;63635.97;5051296;28;20213;-55
2023/12/14 04:08:41;;;;;;;10.00;5.77;;;;;;;6.67;100.00;63629.97;5050961;28;20205;-54
2023/12/14 04:11:07;;;;;;;7.73;5.67;;;;;;;6.60;100.00;63624.84;5051006;28;20253;-56
2023/12/14 04:13:33;;;;;;;10.20;6.67;;;;;;;6.86;100.00;63650.16;5050819;28;20232;-54
2023/12/14 04:15:59;;;;;;;10.53;5.40;;;;;;;6.83;100.00;63649.38;5033054;28;20201;-55
2023/12/14 04:18:24;;;;;;;8.40;5.13;;;;;;;6.93;100.00;63657.25;5051158;28;20208;-57
2023/12/14 04:20:50;;;;;;;9.03;5.90;;;;;;;7.15;100.00;63678.72;5050957;28;20181;-60
2023/12/14 04:23:15;;;;;;;8.60;5.30;;;;;;;6.85;100.00;63646.00;5050923;28;20240;-55
2023/12/14 04:25:41;;;;;;;8.23;5.30;;;;;;;6.88;100.00;63651.78;5032966;28;20659;-55
2023/12/14 04:28:06;;;;;;;8.77;5.60;;;;;;;7.14;100.00;63682.63;5050729;28;20213;-54
2023/12/14 04:30:32;;;;;;;7.90;5.07;;;;;;;6.86;100.00;63649.59;5032945;28;20206;-55
2023/12/14 04:32:57;;;;;;;7.30;5.30;;;;;;;6.98;100.00;63660.16;5050480;28;20578;-55
2023/12/14 04:35:23;;;;;;;8.63;4.97;;;;;;;6.97;100.00;63664.09;5032910;28;20579;-54
2023/12/14 04:37:49;;;;;;;10.97;5.17;;;;;;;6.79;100.00;63643.06;5051184;28;20214;-55
2023/12/14 04:40:15;;;;;;;8.20;5.07;;;;;;;7.08;100.00;63673.59;5050590;28;20687;-55
2023/12/14 04:42:40;;;;;;;8.00;4.90;;;;;;;6.98;100.00;63662.69;5032902;28;20223;-53
2023/12/14 04:45:06;;;;;;;8.10;5.20;;;;;;;7.11;100.00;63682.41;5032977;28;20782;-56
2023/12/14 04:47:32;;;;;;;9.20;5.67;;;;;;;6.99;100.00;63664.31;5050588;28;20303;-54
2023/12/14 04:49:57;;;;;;;8.93;4.57;;;;;;;7.06;100.00;63673.91;5050782;28;20331;-55
2023/12/14 04:52:23;;;;;;;8.63;5.00;;;;;;;6.94;100.00;63661.38;5050521;28;20250;-54
2023/12/14 04:54:48;;;;;;;7.07;4.63;;;;;;;7.05;100.00;63670.84;5050533;28;20197;-54
2023/12/14 04:57:14;;;;;;;9.00;5.73;;;;;;;7.08;100.00;63671.63;5050387;28;20615;-55
2023/12/14 04:59:42;;;;;;;7.77;4.93;;;;;;;6.98;100.00;63665.72;5032627;28;20186;-54
2023/12/14 05:02:08;;;;;;;7.20;4.90;;;;;;;7.17;100.00;63683.41;5050713;28;20255;-54
2023/12/14 05:04:33;;;;;;;8.03;4.83;;;;;;;7.11;100.00;63676.88;5050392;28;20220;-56
2023/12/14 05:06:59;;;;;;;9.67;5.80;;;;;;;7.18;100.00;63687.00;5050700;28;20220;-54
2023/12/14 05:09:24;;;;;;;7.90;5.57;;;;;;;7.06;100.00;63673.91;5054087;28;20182;-55
2023/12/14 05:11:50;;;;;;;11.10;6.03;;;;;;;7.17;100.00;63685.91;5053671;28;20729;-54
2023/12/14 05:14:15;;;;;;;8.90;4.97;;;;;;;7.14;100.00;63682.63;5053725;28;20596;-54
2023/12/14 05:16:40;;;;;;;8.20;5.87;;;;;;;6.85;100.00;63651.00;5035666;28;20221;-55
2023/12/14 05:19:07;;;;;;;11.83;6.00;;;;;;;7.05;100.00;63670.84;5035904;28;20212;-56
2023/12/14 05:21:33;;;;;;;9.50;5.23;;;;;;;6.93;100.00;63660.28;5019430;28;20197;-54
2023/12/14 05:23:58;;;;;;;8.87;5.53;;;;;;;6.98;100.00;63665.72;5053913;28;20195;-55
2023/12/14 05:26:24;;;;;;;12.70;6.60;;;;;;;6.81;100.00;63647.19;5053803;28;20230;-56
2023/12/14 05:28:50;;;;;;;10.87;6.23;;;;;;;6.90;100.00;63654.50;5053816;28;20571;-55
2023/12/14 05:31:16;;;;;;;10.40;5.83;;;;;;;6.84;100.00;63642.97;5053488;28;20224;-55
2023/12/14 05:33:42;;;;;;;11.47;6.10;;;;;;;6.92;100.00;63658.63;5065601;22;20220;-55
2023/12/14 05:36:10;;;;;;;10.03;6.00;;;;;;;7.00;100.00;63667.38;5073843;28;20200;-55
2023/12/14 05:38:38;;;;;;;9.57;5.97;;;;;;;6.74;100.00;63640.13;5054104;28;20209;-55
2023/12/14 05:41:03;;;;;;;10.70;7.10;;;;;;;6.90;100.00;63656.47;5053094;28;20201;-56
2023/12/14 05:43:29;;;;;;;11.23;6.33;;;;;;;7.03;100.00;63668.13;5053388;28;20204;-54
2023/12/14 05:45:54;;;;;;;11.20;6.43;;;;;;;7.13;100.00;63679.03;5035624;28;20231;-57
2023/12/14 05:48:20;;;;;;;10.93;6.70;;;;;;;6.66;100.00;63631.38;5053235;28;20342;-54
2023/12/14 05:50:46;;;;;;;15.37;6.27;;;;;;;6.95;100.00;63661.91;5035147;28;20615;-53
2023/12/14 05:53:11;;;;;;;10.87;7.30;;;;;;;6.92;100.00;63658.63;5053250;28;20294;-55
2023/12/14 05:55:38;;;;;;;12.60;7.10;;;;;;;6.80;100.00;63643.59;5053315;28;20193;-55
2023/12/14 05:58:03;;;;;;;10.47;7.13;;;;;;;6.88;100.00;63656.78;5052960;28;20209;-55
2023/12/14 06:00:29;;;;;;;12.43;7.07;;;;;;;6.72;100.00;63637.94;5053186;28;20682;-55
2023/12/14 06:02:54;;;;;;;9.13;6.20;;;;;;;6.64;100.00;63626.16;5035022;28;20278;-55
2023/12/14 06:05:20;;;;;;;11.97;7.27;;;;;;;6.82;100.00;63645.78;5035058;28;20202;-54
2023/12/14 06:07:46;;;;;;;9.40;6.30;;;;;;;6.64;100.00;63629.22;5052924;28;20260;-54
2023/12/14 06:10:12;;;;;;;11.13;7.40;;;;;;;6.81;100.00;63647.19;5052713;28;20205;-54
2023/12/14 06:12:37;;;;;;;9.87;6.20;;;;;;;6.81;100.00;63646.66;5052720;28;20213;-55
2023/12/14 06:15:04;;;;;;;10.03;7.10;;;;;;;6.61;100.00;63625.94;5053159;28;20288;-55
2023/12/14 06:17:31;;;;;;;9.77;6.37;;;;;;;6.80;100.00;63641.09;5052340;28;20209;-55
2023/12/14 06:19:57;;;;;;;13.87;7.23;;;;;;;6.69;100.00;63632.16;5052666;28;20585;-55
2023/12/14 06:22:22;;;;;;;10.67;6.67;;;;;;;7.10;100.00;63678.81;5034966;28;20608;-55
2023/12/14 06:24:48;;;;;;;16.97;6.20;;;;;;;7.17;100.00;63683.94;5052835;28;20178;-56
2023/12/14 06:27:14;;;;;;;10.83;6.17;;;;;;;6.95;100.00;63661.91;5052676;28;20560;-55
2023/12/14 06:29:39;;;;;;;10.53;7.13;;;;;;;7.22;100.00;63689.41;5053162;28;20273;-56
2023/12/14 06:32:05;;;;;;;11.00;6.67;;;;;;;7.22;100.00;63689.41;5052597;28;20217;-54
2023/12/14 06:34:31;;;;;;;13.07;7.90;;;;;;;7.41;100.00;63709.59;5052527;28;20652;-54
2023/12/14 06:36:59;;;;;;;13.13;7.43;;;;;;;8.45;100.00;63820.63;5052473;28;20214;-60
2023/12/14 06:39:25;;;;;;;14.83;8.03;;;;;;;8.82;100.00;63864.97;5052733;28;20204;-55
2023/12/14 06:41:53;;;;;;;11.27;6.77;;;;;;;8.44;100.00;63821.50;5052426;28;20610;-56
2023/12/14 06:44:18;;;;;;;12.27;7.20;;;;;;;8.56;100.00;63834.59;5052459;28;20190;-56
2023/12/14 06:46:44;;;;;;;15.23;7.03;;;;;;;8.36;100.00;63812.75;5052414;28;20225;-57
2023/12/14 06:49:09;;;;;;;11.93;7.23;;;;;;;8.15;100.00;63789.81;5052558;28;20217;-57
2023/12/14 06:51:35;;;;;;;11.60;6.90;;;;;;;8.06;100.00;63780.50;5060933;22;20212;-56
2023/12/14 06:54:00;;;;;;;15.70;7.90;;;;;;;7.83;100.00;63754.88;5070343;28;20257;-59
2023/12/14 06:56:26;;;;;;;12.07;7.57;;;;;;;7.83;100.00;63755.41;5071131;28;20181;-58
2023/12/14 06:58:52;;;;;;;14.07;7.40;;;;;;;7.57;100.00;63727.56;5052253;28;20539;-57
2023/12/14 07:01:17;;;;;;;12.63;7.87;;;;;;;7.82;100.00;63751.81;5052044;28;20190;-58
2023/12/14 07:03:44;;;;;;;12.43;7.97;;;;;;;7.76;100.00;63747.25;5052200;28;20229;-58
2023/12/14 07:06:14;;;;;;;13.47;7.60;;;;;;;7.88;100.00;63760.88;5052119;28;20201;-58
2023/12/14 07:08:41;;;;;;;16.13;7.87;;;;;;;7.87;100.00;63761.75;5034234;28;20213;-58
2023/12/14 07:11:10;;;;;;;13.63;7.67;;;;;;;7.72;100.00;63745.91;5052016;28;20229;-58
2023/12/14 07:13:36;;;;;;;15.03;6.53;;;;;;;7.66;100.00;63741.88;5051865;28;20667;-58
2023/12/14 07:16:09;;;;;;;10.93;6.23;;;;;;;7.95;100.00;63767.97;5052031;28;20201;-58
2023/12/14 07:18:36;;;;;;;12.67;7.30;;;;;;;8.00;100.00;63776.47;5051847;28;20213;-59
2023/12/14 07:21:02;;;;;;;10.00;6.70;;;;;;;7.87;100.00;63762.28;5051921;28;20181;-58
2023/12/14 07:23:28;;;;;;;9.30;6.40;;;;;;;8.19;100.00;63794.72;5075782;22;20252;-57
2023/12/14 07:25:53;;;;;;;9.10;6.17;;;;;;;8.04;100.00;63778.31;5071939;28;20656;-57
2023/12/14 07:28:19;;;;;;;11.57;6.23;;;;;;;8.25;100.00;63803.25;5055018;28;20233;-60
2023/12/14 07:30:46;;;;;;;8.37;5.97;;;;;;;8.17;100.00;63791.97;5050545;28;20679;-57
2023/12/14 07:33:12;;;;;;;12.73;6.97;;;;;;;8.25;100.00;63803.81;5051560;28;20259;-55
2023/12/14 07:35:37;;;;;;;9.37;5.90;;;;;;;8.50;100.00;63827.50;5051775;28;20198;-56
2023/12/14 07:38:03;;;;;;;9.30;5.80;;;;;;;8.69;100.00;63850.75;5033708;28;20665;-55
2023/12/14 07:40:28;;;;;;;13.13;6.63;;;;;;;8.80;100.00;63862.78;5051641;28;20217;-56
2023/12/14 07:42:54;;;;;;;11.53;6.30;;;;;;;9.02;100.00;63881.78;5051803;28;20279;-55
2023/12/14 07:45:19;;;;;;;11.93;6.50;;;;;;;8.92;100.00;63870.88;5051686;28;20197;-58
2023/12/14 07:47:46;;;;;;;11.13;5.90;;;;;;;8.84;100.00;63864.63;5051538;28;20562;-59
2023/12/14 07:50:12;;;;;;;8.70;5.47;;;;;;;8.96;100.00;63878.31;5033447;28;20200;-57
2023/12/14 07:52:39;;;;;;;11.63;7.10;;;;;;;9.07;100.00;63892.28;5051267;28;20275;-57
2023/12/14 07:55:05;;;;;;;7.63;5.60;;;;;;;9.18;100.00;63899.28;5051344;28;20189;-57
2023/12/14 07:57:31;;;;;;;12.57;6.30;;;;;;;9.02;100.00;63884.31;5051164;28;20217;-58
2023/12/14 07:59:57;;;;;;;8.50;5.50;;;;;;;9.13;100.00;63898.84;5051303;28;20181;-58
2023/12/14 08:02:23;;;;;;;16.57;6.23;;;;;;;9.42;100.00;63930.53;5066450;22;20233;-58
2023/12/14 08:04:49;;;;;;;8.03;4.97;;;;;;;9.10;100.00;63895.56;5071526;28;20640;-58
2023/12/14 08:07:14;;;;;;;9.37;5.20;;;;;;;9.36;100.00;63921.47;5045539;28;20205;-58
2023/12/14 08:09:40;;;;;;;13.23;5.80;;;;;;;9.49;100.00;63933.19;5051333;28;20656;-58
2023/12/14 08:12:06;;;;;;;9.27;6.63;;;;;;;9.56;100.00;63942.78;5063939;22;20217;-58
2023/12/14 08:14:34;;;;;;;14.47;6.03;;;;;;;10.01;100.00;63992.56;5071102;28;20674;-58
2023/12/14 08:17:01;;;;;;;8.37;4.60;;;;;;;10.08;100.00;63999.66;5072709;22;20225;-58
2023/12/14 08:19:27;;;;;;;10.97;6.03;;;;;;;9.83;100.00;63972.88;5051079;28;20186;-58
2023/12/14 08:21:52;;;;;;;10.50;4.97;;;;;;;9.97;100.00;63985.66;5051149;28;20214;-58
2023/12/14 08:24:18;;;;;;;10.97;4.97;;;;;;;9.92;100.00;63982.69;5051175;28;20686;-55
2023/12/14 08:26:43;;;;;;;11.17;5.40;;;;;;;9.90;100.00;63979.97;5050935;28;20632;-56
2023/12/14 08:29:09;;;;;;;8.93;5.23;;;;;;;9.94;100.00;63984.88;5033147;28;20679;-56
2023/12/14 08:31:35;;;;;;;8.93;5.27;;;;;;;9.92;100.00;63982.16;5032854;28;20209;-54
2023/12/14 08:34:00;;;;;;;9.30;5.33;;;;;;;9.96;100.00;63987.09;5033046;28;20181;-57
2023/12/14 08:36:26;;;;;;;7.90;4.90;;;;;;;10.01;100.00;63995.06;5050973;28;20190;-54
2023/12/14 08:38:52;;;;;;;13.20;5.20;;;;;;;10.18;100.00;64012.59;5050699;28;20220;-54
2023/12/14 08:41:17;;;;;;;15.20;6.10;;;;;;;10.16;100.00;64007.91;5032619;28;20316;-54
2023/12/14 08:43:43;;;;;;;9.90;4.47;;;;;;;10.21;100.00;64013.91;5050892;28;20217;-55
2023/12/14 08:46:09;;;;;;;8.57;4.70;;;;;;;10.12;100.00;64001.53;5050626;28;20193;-58
2023/12/14 08:48:35;;;;;;;8.70;5.53;;;;;;;10.26;100.00;64016.84;5050525;28;20205;-58
2023/12/14 08:51:01;;;;;;;8.13;5.77;;;;;;;10.22;100.00;64014.47;5050836;28;20210;-59
2023/12/14 08:53:28;;;;;;;9.50;5.07;;;;;;;10.46;100.00;64038.19;5050577;28;20209;-58
2023/12/14 08:55:54;;;;;;;9.67;5.13;;;;;;;10.44;99.38;64036.56;5050773;28;20263;-58
2023/12/14 08:58:19;;;;;;;14.93;5.33;;;;;;;10.54;97.99;64049.47;5050491;28;20620;-60
2023/12/14 09:00:45;;;;;;;9.13;5.17;;;;;;;10.51;97.01;64046.75;5050689;28;20193;-59
2023/12/14 09:03:10;;;;;;;9.47;5.73;;;;;;;10.55;99.97;64050.56;5050413;28;20259;-55
2023/12/14 09:05:36;;;;;;;8.13;4.90;;;;;;;10.72;98.38;64069.19;5050480;28;20197;-55
2023/12/14 09:08:02;;;;;;;10.60;5.30;;;;;;;10.87;97.41;64085.59;5050340;28;20225;-55
2023/12/14 09:10:28;;;;;;;9.63;5.43;;;;;;;10.96;94.33;64092.94;5050094;28;20201;-57
2023/12/14 09:12:54;;;;;;;7.20;4.77;;;;;;;10.92;94.10;64089.09;5050156;28;20202;-56
2023/12/14 09:15:19;;;;;;;9.20;5.10;;;;;;;10.84;96.81;64082.88;5050427;28;20198;-55
2023/12/14 09:17:45;;;;;;;7.93;5.00;;;;;;;11.25;94.49;64124.69;5050205;28;20594;-55
2023/12/14 09:20:11;;;;;;;9.63;5.40;;;;;;;11.37;95.37;64137.28;5050256;28;20523;-54
2023/12/14 09:22:37;;;;;;;11.27;4.50;;;;;;;11.45;91.65;64151.63;5050200;28;20238;-55
2023/12/14 09:25:03;;;;;;;11.50;5.67;;;;;;;11.33;94.29;64132.91;5050315;28;20196;-55
2023/12/14 09:27:29;;;;;;;9.97;4.90;;;;;;;11.48;93.94;64152.41;5050053;28;20217;-55
2023/12/14 09:29:54;;;;;;;4.77;3.87;;;;;;;11.38;94.64;64138.38;5050107;28;20570;-54
2023/12/14 09:32:20;;;;;;;7.40;4.67;;;;;;;11.17;97.58;64118.44;5049985;28;20209;-58
2023/12/14 09:34:45;;;;;;;11.10;4.23;;;;;;;11.46;93.08;64152.19;5049960;28;20182;-58
2023/12/14 09:37:13;;;;;;;6.50;4.17;;;;;;;11.49;95.36;64150.97;5050123;28;20205;-59
2023/12/14 09:39:38;;;;;;;9.73;5.27;;;;;;;11.46;96.58;64147.13;5032847;28;20264;-57
2023/12/14 09:42:05;;;;;;;6.20;4.27;;;;;;;11.46;98.48;64147.13;5050129;28;20313;-60
2023/12/14 09:44:31;;;;;;;8.70;4.63;;;;;;;11.61;94.26;64166.09;5049855;28;20194;-61
2023/12/14 09:47:02;;;;;;;9.17;4.70;;;;;;;11.80;90.63;64184.97;5050088;28;20815;-56
2023/12/14 09:49:32;;;;;;;7.77;4.67;;;;;;;11.70;89.64;64176.53;5032289;28;20221;-56
2023/12/14 09:51:57;;;;;;;7.27;4.30;;;;;;;11.64;92.83;64172.47;5049865;28;20224;-56
2023/12/14 09:54:24;;;;;;;10.90;4.80;;;;;;;11.71;90.13;64175.13;5034279;28;20177;-57
2023/12/14 09:56:50;;;;;;;17.33;5.30;;;;;;;11.56;90.96;64158.66;5053022;28;20212;-56
2023/12/14 09:59:16;;;;;;;11.40;5.60;;;;;;;11.47;92.10;64150.78;5035252;28;20181;-55
2023/12/14 10:01:42;;;;;;;8.33;5.97;;;;;;;11.44;91.79;64148.03;5053387;28;20751;-55
2023/12/14 10:04:10;;;;;;;9.57;6.10;;;;;;;11.46;91.52;64147.13;5053012;28;20280;-56
2023/12/14 10:06:37;;;;;;;12.73;6.00;;;;;;;11.52;91.50;64156.25;5053395;28;20192;-64
2023/12/14 10:09:03;;;;;;;10.87;6.13;;;;;;;11.36;92.63;64136.19;5053099;28;20185;-56
2023/12/14 10:11:29;;;;;;;9.53;5.30;;;;;;;11.42;92.45;64145.84;5052964;28;20220;-56
2023/12/14 10:13:55;;;;;;;11.40;5.13;;;;;;;11.35;92.92;64135.09;5035200;28;20197;-58
2023/12/14 10:16:28;;;;;;;6.97;4.90;;;;;;;11.32;91.35;64131.81;5052907;28;20182;-55
2023/12/14 10:18:55;;;;;;;10.17;4.60;;;;;;;11.37;92.78;64140.34;5052796;28;20235;-59
2023/12/14 10:21:21;;;;;;;9.33;5.37;;;;;;;11.32;93.14;64132.34;5053096;28;20193;-59
2023/12/14 10:23:46;;;;;;;8.57;4.57;;;;;;;11.38;91.54;64140.91;5052366;28;20198;-59
2023/12/14 10:26:12;;;;;;;12.20;5.40;;;;;;;11.45;92.54;64146.59;5052607;28;20186;-58
2023/12/14 10:28:39;;;;;;;12.37;5.60;;;;;;;11.37;92.40;64140.34;5034816;28;20271;-58
2023/12/14 10:31:05;;;;;;;15.37;5.93;;;;;;;11.53;94.12;64155.34;5034865;28;20275;-58
2023/12/14 10:33:31;;;;;;;9.73;5.27;;;;;;;11.40;93.05;64138.59;5052579;28;20709;-57
2023/12/14 10:35:57;;;;;;;11.77;5.87;;;;;;;11.32;93.50;64137.41;5053111;28;20194;-57
2023/12/14 10:38:25;;;;;;;15.37;6.60;;;;;;;11.25;92.98;64124.69;5052576;28;20233;-58
2023/12/14 10:40:53;;;;;;;12.93;5.57;;;;;;;11.26;94.25;64128.31;5052203;28;20698;-58
2023/12/14 10:43:19;;;;;;;10.93;5.73;;;;;;;11.36;93.85;64138.72;5052447;28;20284;-58
2023/12/14 10:45:47;;;;;;;11.13;5.70;;;;;;;11.23;93.05;64125.00;5052764;28;20190;-60
2023/12/14 10:48:13;;;;;;;12.13;5.90;;;;;;;11.28;93.81;64127.97;5052559;28;20201;-58
2023/12/14 10:50:42;;;;;;;17.40;6.63;;;;;;;11.27;93.61;64126.34;5052360;28;20216;-60
2023/12/14 10:53:09;;;;;;;13.23;6.77;;;;;;;11.21;94.17;64122.81;5051806;28;20212;-58
2023/12/14 10:55:51;;;;;;;12.60;6.30;;;;;;;11.31;93.78;64133.78;5050256;28;20429;-58
2023/12/14 10:58:20;;;;;;;18.60;7.27;;;;;;;11.92;100.00;64197.56;5051745;28;20599;-61
2023/12/14 11:01:01;;;;;;;11.73;6.90;;;;;;;11.50;100.00;64149.56;5034359;28;20190;-55
2023/12/14 11:03:32;;;;;;;16.17;7.37;;;;;;;11.29;100.00;64129.06;5052113;28;20216;-55
2023/12/14 11:06:00;;;;;;;9.53;5.70;;;;;;;11.02;100.00;64102.03;5052053;28;20221;-57
2023/12/14 11:08:25;;;;;;;14.63;6.47;;;;;;;10.84;100.00;64079.78;5052161;28;20585;-57
2023/12/14 11:11:10;;;;;;;11.13;6.53;;;;;;;10.83;100.00;64081.75;5051988;28;20217;-56
2023/12/14 11:13:38;;;;;;;15.60;7.47;;;;;;;10.83;100.00;64081.75;5051993;28;20266;-56
2023/12/14 11:16:04;;;;;;;7.77;5.13;;;;;;;10.79;100.00;64071.78;5051582;28;20220;-56
2023/12/14 11:18:31;;;;;;;8.67;4.77;;;;;;;10.82;100.00;64080.69;5034043;28;20687;-57
2023/12/14 11:20:59;;;;;;;6.33;4.37;;;;;;;10.53;100.00;64045.84;5051922;28;20220;-57